• pl
  • eng

Awiacja
Kliknij na pogrubioną czerwoną nazwę, aby odkodować depeszę. 04:31 19.06.2018
  • WIND
  • SIGNIFICANT EURO
  • SIGNIFICANT
  • SIGMET
  • AIRMET
  • TAF FC
  • TAF FT
  • METAR GG30
  • METAR GG00


METAR EPBY 190230Z 20006KT CAVOK 17/12 Q1018 =

METAR EPGD 190230Z 22005KT CAVOK 16/12 Q1017 =

METAR EPKK 190230Z 27004KT 9999 FEW051 18/12 Q1020 =

METAR EPKT 190230Z VRB01KT CAVOK 14/11 Q1020 =

METAR EPLB 190230Z 29004KT CAVOK 18/16 Q1017 =

METAR EPLL 190230Z VRB01KT CAVOK 12/11 Q1019 =

METAR EPMO 190230Z VRB02KT CAVOK 15/13 Q1019 =

METAR EPPO 190230Z 22004KT CAVOK 17/12 Q1019 =

METAR EPRA 190230Z NIL=

METAR EPRZ 190230Z 23002KT 5000 BR NSC 16/16 Q1018 =

METAR EPSC 190230Z 24005KT 210V280 CAVOK 18/13 Q1017 =

METAR EPSY 190230Z 19003KT 8000 MIFG NSC 11/10 Q1018=

METAR EPWA 190230Z 31003KT CAVOK 17/15 Q1019 NOSIG=

METAR EPWR 190230Z VRB01KT CAVOK 13/11 Q1020 =

METAR EPZG 190230Z VRB01KT CAVOK 16/11 Q1020 =
 METAR EPGD
Lokalizacja:EPGD Gdańsk
Czas:02:30 UTC
Średni kierunek wiatru:220 °
Średnia prędkość wiatru:5 węzłów
CAVOK:Widzialność 10 km i więcej, zjawisko: NIL, zachmurzenie: NSC
Temperatura powietrza:16 °C
Temperatura punktu rosy:12 °C
Ciśnienie QNH:1017 hPa
Awiacja.imgw.pl jest pogodowym serwisem informacyjnym
Instytutu Meteorologii i Gospodarki Wodnej Państwowego Instytutu Badawczego.
Copyright IMGW PIB 2009-2011© Wszelkie prawa zastrzeżone.